Ticonderoga, New York
Current Conditions -  °F | °C
As of 4:55 PM on Friday 28 Nov 2014 (Local Time) from K6B0 Reporting Station
Overcast Overcast  
Wind Chill: 25°   Ceiling: 4600
Heat Index: 25°   Visibility: 10mi
Dew Point: 17°   Wind: 0mph
Humidity: 71%   Direction: NA
Pressure: 30.13"   Gusts: NA
Location:  43.85°N, 73.42°W
Report Text: K6B0 282155Z AUTO 00000KT 10SM SCT032 BKN046 OVC060 M04/M08 A3013 RMK AO2 T10401085
Loading
Personal Weather Stations






























Interactive Weather Map New forecast layout! Learn more

10-Day Weather Forecast

Advertisements
Track Severe Weather on mobile